Hurst, Illinois
Current Conditions -  °F | °C
As of 8:52 AM on Friday 19 Dec 2014 (Local Time) from KMDH Reporting Station
Overcast Overcast  
Wind Chill: 26°   Ceiling: 3500
Heat Index: 32°   Visibility: 7mi
Dew Point: 25°   Wind: 6mph
Humidity: 75%   Direction: 70°ENE
Pressure: 30.3"   Gusts: NA
Location:  37.83°N, 89.14°W
Report Text: KMDH 191452Z 07005KT 7SM OVC035 00/M04 A3030 RMK AO2 SLP265 T00001039 50001
Loading
Personal Weather Stations






























Interactive Weather Map New forecast layout! Learn more

10-Day Weather Forecast

Advertisements
Track Severe Weather on mobile